createdAt,value
2022-09-07T00:02:33.423Z,30.55
2022-09-07T00:06:55.654Z,32.22
2022-09-07T00:11:19.732Z,33.08
2022-09-07T00:15:41.552Z,44.25
2022-09-07T00:20:06.013Z,38.97
2022-09-07T00:24:27.972Z,41.40
2022-09-07T00:28:51.093Z,41.38
2022-09-07T00:33:13.033Z,36.85
2022-09-07T00:37:35.174Z,39.45
2022-09-07T00:41:57.073Z,39.75
2022-09-07T00:46:26.132Z,42.47
2022-09-07T00:50:56.172Z,44.33
2022-09-07T00:55:19.484Z,44.53
2022-09-07T00:59:50.532Z,41.95
2022-09-07T01:04:13.452Z,41.40
2022-09-07T01:08:36.153Z,38.35
2022-09-07T01:13:00.073Z,44.63
2022-09-07T01:17:37.273Z,41.92
2022-09-07T01:22:34.474Z,45.58
2022-09-07T01:27:47.174Z,40.78
2022-09-07T01:32:23.633Z,37.20
2022-09-07T01:37:05.215Z,45.33
2022-09-07T01:41:43.575Z,39.15
2022-09-07T01:46:30.559Z,46.17
2022-09-07T01:51:02.774Z,48.30
2022-09-07T01:55:46.812Z,43.92
2022-09-07T02:00:15.625Z,47.65
2022-09-07T02:05:03.459Z,49.00
2022-09-07T02:09:34.592Z,48.80
2022-09-07T02:14:34.200Z,44.85
2022-09-07T02:19:12.973Z,62.45
2022-09-07T02:24:00.172Z,62.53
2022-09-07T02:28:29.517Z,56.28
2022-09-07T02:32:51.813Z,70.38
2022-09-07T02:37:17.253Z,65.32
2022-09-07T02:41:44.793Z,69.70
2022-09-07T02:46:25.749Z,62.58
2022-09-07T02:51:20.733Z,63.35
2022-09-07T02:56:52.676Z,53.97
2022-09-07T03:02:11.215Z,58.72
2022-09-07T03:06:40.953Z,62.75
2022-09-07T03:11:05.513Z,61.15
2022-09-07T03:15:28.568Z,58.83
2022-09-07T03:19:50.712Z,59.88
2022-09-07T03:24:12.874Z,58.83
2022-09-07T03:28:35.098Z,61.97
2022-09-07T03:32:56.974Z,57.25
2022-09-07T03:37:18.833Z,60.72
2022-09-07T03:41:40.793Z,56.72
2022-09-07T03:46:06.493Z,61.35
2022-09-07T03:50:29.335Z,57.17
2022-09-07T03:54:51.463Z,61.10
2022-09-07T03:59:13.753Z,60.03
2022-09-07T04:03:36.973Z,58.65
2022-09-07T04:07:59.154Z,60.63
2022-09-07T04:12:21.233Z,57.05
2022-09-07T04:16:45.626Z,52.10
2022-09-07T04:21:07.959Z,62.70
2022-09-07T04:25:30.486Z,52.95
2022-09-07T04:29:52.863Z,57.00
2022-09-07T04:34:15.480Z,53.88
2022-09-07T04:38:37.784Z,52.95
2022-09-07T04:43:00.045Z,49.78
2022-09-07T04:47:22.544Z,48.28
2022-09-07T04:51:44.943Z,44.60
2022-09-07T04:56:07.584Z,45.67
2022-09-07T05:00:30.044Z,36.08
2022-09-07T05:04:52.564Z,36.85
2022-09-07T05:09:14.885Z,28.08
2022-09-07T05:13:37.328Z,26.27
2022-09-07T05:17:59.844Z,23.10
2022-09-07T05:22:22.864Z,27.92
2022-09-07T05:26:45.257Z,22.95
2022-09-07T05:35:36.887Z,18.30
2022-09-07T05:39:59.368Z,18.75
2022-09-07T05:49:05.106Z,17.60
2022-09-07T05:53:28.087Z,22.10
2022-09-07T05:57:50.625Z,18.17
2022-09-07T06:02:15.579Z,14.77
2022-09-07T06:06:39.388Z,15.02
2022-09-07T06:11:11.033Z,14.57
2022-09-07T06:15:34.405Z,12.43
2022-09-07T06:19:57.466Z,11.38
2022-09-07T06:24:19.851Z,15.30
2022-09-07T06:28:48.908Z,11.35
2022-09-07T06:33:11.890Z,10.07
2022-09-07T06:37:34.451Z,10.57
2022-09-07T06:51:20.091Z,9.07
2022-09-07T06:55:45.794Z,8.77
2022-09-07T07:00:08.647Z,10.70
2022-09-07T07:04:32.390Z,8.93
2022-09-07T07:08:56.469Z,7.82
2022-09-07T07:17:41.030Z,8.23
2022-09-07T07:26:48.912Z,12.70
2022-09-07T07:31:13.330Z,8.98
2022-09-07T07:35:35.864Z,9.65
2022-09-07T07:44:36.103Z,7.10
2022-09-07T07:48:59.064Z,9.32
2022-09-07T07:58:05.290Z,8.48
2022-09-07T08:02:27.910Z,5.50
2022-09-07T08:06:50.530Z,9.57
2022-09-07T08:11:17.829Z,7.55
2022-09-07T08:15:46.892Z,5.25
2022-09-07T08:20:10.189Z,7.70
2022-09-07T08:24:33.030Z,7.28
2022-09-07T08:28:55.743Z,9.13
2022-09-07T08:33:18.122Z,14.40
2022-09-07T08:37:40.531Z,11.05
2022-09-07T08:42:43.242Z,6.43
2022-09-07T08:47:37.711Z,9.88
2022-09-07T08:52:26.059Z,9.07
2022-09-07T09:01:42.510Z,8.45
2022-09-07T09:06:42.017Z,7.53
2022-09-07T09:11:44.796Z,12.65
2022-09-07T09:16:35.811Z,8.60
2022-09-07T09:21:00.444Z,9.85
2022-09-07T09:25:31.910Z,9.65
2022-09-07T09:29:54.630Z,8.63
2022-09-07T09:34:23.910Z,13.30
2022-09-07T09:38:47.730Z,8.45
2022-09-07T09:43:24.190Z,9.88
2022-09-07T09:47:53.183Z,7.78
2022-09-07T09:52:30.222Z,6.45
2022-09-07T09:56:53.910Z,11.07
2022-09-07T10:01:31.063Z,7.70
2022-09-07T10:05:54.770Z,10.40
2022-09-07T10:10:17.474Z,6.18
2022-09-07T10:14:44.629Z,8.32
2022-09-07T10:19:21.590Z,8.45
2022-09-07T10:23:44.082Z,10.00
2022-09-07T10:28:16.071Z,10.32
2022-09-07T10:33:06.885Z,7.15
2022-09-07T10:37:56.444Z,9.65
2022-09-07T10:42:38.850Z,8.75
2022-09-07T10:47:43.870Z,13.90
2022-09-07T10:52:49.620Z,11.90
2022-09-07T10:59:01.515Z,11.50
2022-09-07T11:04:04.753Z,12.23
2022-09-07T11:14:01.751Z,9.25
2022-09-07T11:18:33.731Z,8.27
2022-09-07T11:23:15.122Z,11.55
2022-09-07T11:27:56.798Z,10.45
2022-09-07T11:32:31.532Z,9.80
2022-09-07T11:37:21.193Z,10.18
2022-09-07T11:47:34.282Z,10.15
2022-09-07T11:52:05.569Z,7.60
2022-09-07T11:56:36.892Z,11.70
2022-09-07T12:01:10.809Z,8.38
2022-09-07T12:05:43.331Z,9.00
2022-09-07T12:10:39.741Z,8.65
2022-09-07T12:15:35.536Z,8.77
2022-09-07T12:20:24.151Z,10.85
2022-09-07T12:24:53.782Z,13.00
2022-09-07T12:29:24.332Z,7.90
2022-09-07T12:33:46.814Z,15.30
2022-09-07T12:38:17.589Z,10.60
2022-09-07T12:42:40.030Z,10.23
2022-09-07T12:47:12.890Z,11.57
2022-09-07T12:56:37.130Z,9.65
2022-09-07T13:01:19.671Z,9.05
2022-09-07T13:11:36.029Z,9.52
2022-09-07T13:16:07.756Z,8.57
2022-09-07T13:20:36.150Z,8.13
2022-09-07T13:25:28.635Z,7.70
2022-09-07T13:30:16.504Z,8.30
2022-09-07T13:35:06.010Z,7.65
2022-09-07T13:39:41.217Z,9.73
2022-09-07T13:44:06.188Z,6.15
2022-09-07T13:48:52.710Z,9.00
2022-09-07T13:53:42.549Z,8.02
2022-09-07T13:58:38.616Z,10.60
2022-09-07T14:03:07.359Z,7.80
2022-09-07T14:07:31.761Z,9.65
2022-09-07T14:11:55.158Z,7.70
2022-09-07T14:16:17.778Z,3.72
2022-09-07T14:20:52.769Z,5.22
2022-09-07T14:25:22.976Z,8.25
2022-09-07T14:29:45.430Z,4.18
2022-09-07T14:34:09.900Z,7.32
2022-09-07T14:43:35.250Z,8.77
2022-09-07T14:47:57.751Z,7.05
2022-09-07T14:52:30.012Z,5.25
2022-09-07T14:57:30.676Z,6.20
2022-09-07T15:02:18.909Z,6.50
2022-09-07T15:11:33.495Z,8.65
2022-09-07T15:16:03.804Z,8.63
2022-09-07T15:20:44.421Z,4.88
2022-09-07T15:25:08.716Z,6.28
2022-09-07T15:29:31.608Z,6.13
2022-09-07T15:33:54.330Z,5.72
2022-09-07T15:43:11.467Z,5.85
2022-09-07T15:47:43.544Z,8.32
2022-09-07T15:52:09.748Z,7.75
2022-09-07T15:56:32.191Z,11.32
2022-09-07T16:01:51.580Z,8.98
2022-09-07T16:05:40.389Z,10.30
2022-09-07T16:10:05.067Z,10.75
2022-09-07T16:14:27.383Z,7.53
2022-09-07T16:18:50.153Z,9.38
2022-09-07T16:23:15.592Z,9.75
2022-09-07T16:27:41.256Z,14.68
2022-09-07T16:36:50.192Z,19.58
2022-09-07T16:41:27.363Z,22.23
2022-09-07T16:46:05.531Z,27.17
2022-09-07T16:50:27.613Z,29.05
2022-09-07T16:54:53.484Z,29.05
2022-09-07T16:59:17.549Z,26.02
2022-09-07T17:03:40.670Z,25.63
2022-09-07T17:08:04.181Z,26.15
2022-09-07T17:12:26.930Z,24.42
2022-09-07T17:16:49.682Z,27.08
2022-09-07T17:21:12.371Z,24.38
2022-09-07T17:25:34.782Z,22.33
2022-09-07T17:29:57.469Z,18.83
2022-09-07T17:34:20.310Z,22.15
2022-09-07T17:43:45.410Z,19.70
2022-09-07T17:48:08.109Z,18.73
2022-09-07T17:52:31.909Z,20.73
2022-09-07T17:56:54.612Z,21.75
2022-09-07T18:01:20.630Z,18.88
2022-09-07T18:05:43.279Z,20.30
2022-09-07T18:10:05.931Z,21.42
2022-09-07T18:14:30.386Z,21.77
2022-09-07T18:18:54.291Z,20.77
2022-09-07T18:23:17.070Z,18.40
2022-09-07T18:27:40.445Z,19.15
2022-09-07T18:32:09.516Z,20.77
2022-09-07T18:36:32.349Z,19.25
2022-09-07T18:41:09.289Z,16.90
2022-09-07T18:45:31.791Z,18.45
2022-09-07T18:49:55.051Z,17.42
2022-09-07T18:54:17.711Z,18.20
2022-09-07T18:58:42.185Z,20.27
2022-09-07T19:03:05.090Z,19.83
2022-09-07T19:07:29.841Z,22.88
2022-09-07T19:11:52.349Z,19.70
2022-09-07T19:16:19.626Z,18.30
2022-09-07T19:20:42.070Z,19.20
2022-09-07T19:25:06.371Z,20.77
2022-09-07T19:29:29.622Z,19.23
2022-09-07T19:34:03.407Z,19.27
2022-09-07T19:38:25.618Z,17.90
2022-09-07T19:42:47.992Z,20.65
2022-09-07T19:47:10.731Z,18.27
2022-09-07T19:51:36.728Z,17.38
2022-09-07T19:56:13.295Z,16.77
2022-09-07T20:00:38.404Z,18.60
2022-09-07T20:05:00.725Z,19.92
2022-09-07T20:09:23.232Z,23.33
2022-09-07T20:13:46.270Z,18.15
2022-09-07T20:18:08.785Z,17.02
2022-09-07T20:22:34.522Z,17.52
2022-09-07T20:26:56.710Z,18.13
2022-09-07T20:31:19.325Z,18.98
2022-09-07T20:35:43.930Z,21.60
2022-09-07T20:40:07.520Z,19.45
2022-09-07T20:44:30.151Z,17.33
2022-09-07T20:48:52.570Z,20.05
2022-09-07T20:53:15.634Z,19.65
2022-09-07T20:57:38.291Z,21.40
2022-09-07T21:02:00.541Z,18.05
2022-09-07T21:06:25.630Z,18.35
2022-09-07T21:10:48.531Z,16.30
2022-09-07T21:15:11.094Z,17.83
2022-09-07T21:19:33.891Z,19.38
2022-09-07T21:24:03.451Z,16.50
2022-09-07T21:28:27.763Z,17.50
2022-09-07T21:32:52.464Z,16.25
2022-09-07T21:37:15.052Z,18.45
2022-09-07T21:41:38.152Z,16.63
2022-09-07T21:46:09.916Z,15.23
2022-09-07T21:50:32.410Z,16.02
2022-09-07T21:54:55.430Z,19.02
2022-09-07T21:59:20.390Z,17.10
2022-09-07T22:03:46.646Z,15.43
2022-09-07T22:08:10.426Z,16.77
2022-09-07T22:12:32.805Z,16.05
2022-09-07T22:16:55.486Z,14.77
2022-09-07T22:21:23.085Z,18.75
2022-09-07T22:25:53.459Z,17.65
2022-09-07T22:30:15.986Z,16.48
2022-09-07T22:34:38.367Z,16.13
2022-09-07T22:39:06.670Z,14.43
2022-09-07T22:43:29.395Z,13.65
2022-09-07T22:47:52.005Z,15.02
2022-09-07T22:52:14.826Z,19.45
2022-09-07T22:56:38.565Z,14.40
2022-09-07T23:01:01.325Z,15.02
2022-09-07T23:05:23.525Z,14.80
2022-09-07T23:09:46.005Z,14.25
2022-09-07T23:14:19.966Z,14.98
2022-09-07T23:18:49.549Z,14.52
2022-09-07T23:23:13.644Z,12.43
2022-09-07T23:27:36.993Z,14.05
2022-09-07T23:31:59.405Z,13.77
2022-09-07T23:36:22.265Z,14.93
2022-09-07T23:40:44.686Z,13.15
2022-09-07T23:45:09.005Z,12.13
2022-09-07T23:49:31.625Z,12.35
2022-09-07T23:53:54.166Z,14.35
2022-09-07T23:58:17.366Z,13.98
